sensor_id;sensor_type;location;lat;lon;timestamp;pressure;altitude;pressure_sealevel;temperature;humidity
74218;BME280;62579;47.288;18.646;2023-08-24T00:01:30;99960.19;;;22.04;87.31
74218;BME280;62579;47.288;18.646;2023-08-24T00:03:55;99969.00;;;21.93;88.01
74218;BME280;62579;47.288;18.646;2023-08-24T00:06:21;99970.56;;;21.86;88.59
74218;BME280;62579;47.288;18.646;2023-08-24T00:08:46;99961.81;;;21.73;89.69
74218;BME280;62579;47.288;18.646;2023-08-24T00:11:32;99963.84;;;21.72;89.97
74218;BME280;62579;47.288;18.646;2023-08-24T00:13:58;99959.38;;;21.77;89.68
74218;BME280;62579;47.288;18.646;2023-08-24T00:16:23;99966.53;;;21.80;89.63
74218;BME280;62579;47.288;18.646;2023-08-24T00:18:49;99957.09;;;21.83;90.49
74218;BME280;62579;47.288;18.646;2023-08-24T00:21:15;99961.47;;;21.86;90.33
74218;BME280;62579;47.288;18.646;2023-08-24T00:23:48;99950.75;;;21.90;89.76
74218;BME280;62579;47.288;18.646;2023-08-24T00:26:13;99955.94;;;22.03;89.04
74218;BME280;62579;47.288;18.646;2023-08-24T00:28:41;99961.66;;;22.05;89.51
74218;BME280;62579;47.288;18.646;2023-08-24T00:31:07;99958.91;;;21.88;90.30
74218;BME280;62579;47.288;18.646;2023-08-24T00:33:32;99960.25;;;21.79;90.51
74218;BME280;62579;47.288;18.646;2023-08-24T00:36:01;99967.19;;;21.71;91.44
74218;BME280;62579;47.288;18.646;2023-08-24T00:38:27;99964.91;;;21.60;92.29
74218;BME280;62579;47.288;18.646;2023-08-24T00:40:53;99971.59;;;21.57;92.59
74218;BME280;62579;47.288;18.646;2023-08-24T00:43:19;99972.16;;;21.55;92.93
74218;BME280;62579;47.288;18.646;2023-08-24T00:45:50;99966.22;;;21.59;92.77
74218;BME280;62579;47.288;18.646;2023-08-24T00:48:15;99966.62;;;21.55;93.08
74218;BME280;62579;47.288;18.646;2023-08-24T00:50:41;99972.97;;;21.48;93.51
74218;BME280;62579;47.288;18.646;2023-08-24T00:53:06;99974.66;;;21.43;93.85
74218;BME280;62579;47.288;18.646;2023-08-24T00:55:31;99978.00;;;21.42;94.01
74218;BME280;62579;47.288;18.646;2023-08-24T00:57:58;99971.72;;;21.41;94.06
74218;BME280;62579;47.288;18.646;2023-08-24T01:00:24;99963.03;;;21.45;93.92
74218;BME280;62579;47.288;18.646;2023-08-24T01:02:50;99966.69;;;21.47;93.93
74218;BME280;62579;47.288;18.646;2023-08-24T01:05:15;99964.09;;;21.49;93.90
74218;BME280;62579;47.288;18.646;2023-08-24T01:07:41;99964.97;;;21.52;93.68
74218;BME280;62579;47.288;18.646;2023-08-24T01:10:09;99975.16;;;21.49;94.18
74218;BME280;62579;47.288;18.646;2023-08-24T01:13:01;99970.59;;;21.44;94.60
74218;BME280;62579;47.288;18.646;2023-08-24T01:15:58;99973.38;;;21.44;94.64
74218;BME280;62579;47.288;18.646;2023-08-24T01:18:26;99969.78;;;21.51;94.11
74218;BME280;62579;47.288;18.646;2023-08-24T01:20:53;99960.69;;;21.59;93.74
74218;BME280;62579;47.288;18.646;2023-08-24T01:24:08;99960.69;;;21.59;93.85
74218;BME280;62579;47.288;18.646;2023-08-24T01:26:36;99967.66;;;21.60;94.03
74218;BME280;62579;47.288;18.646;2023-08-24T01:29:04;99958.81;;;21.61;93.99
74218;BME280;62579;47.288;18.646;2023-08-24T01:31:29;99961.00;;;21.63;94.18
74218;BME280;62579;47.288;18.646;2023-08-24T01:33:55;99965.09;;;21.62;94.32
74218;BME280;62579;47.288;18.646;2023-08-24T01:36:21;99958.81;;;21.61;94.42
74218;BME280;62579;47.288;18.646;2023-08-24T01:39:42;99959.84;;;21.66;94.19
74218;BME280;62579;47.288;18.646;2023-08-24T01:41:44;99969.06;;;21.68;94.31
74218;BME280;62579;47.288;18.646;2023-08-24T01:44:14;99963.13;;;21.72;93.58
74218;BME280;62579;47.288;18.646;2023-08-24T01:46:44;99967.69;;;21.77;92.78
74218;BME280;62579;47.288;18.646;2023-08-24T01:49:12;99961.09;;;21.72;92.87
74218;BME280;62579;47.288;18.646;2023-08-24T01:51:39;99955.28;;;21.61;93.24
74218;BME280;62579;47.288;18.646;2023-08-24T01:54:05;99957.31;;;21.60;92.90
74218;BME280;62579;47.288;18.646;2023-08-24T01:56:30;99960.81;;;21.43;94.12
74218;BME280;62579;47.288;18.646;2023-08-24T01:58:56;99954.38;;;21.41;94.29
74218;BME280;62579;47.288;18.646;2023-08-24T02:01:22;99957.16;;;21.41;94.30
74218;BME280;62579;47.288;18.646;2023-08-24T02:03:47;99961.41;;;21.42;94.45
74218;BME280;62579;47.288;18.646;2023-08-24T02:06:12;99950.91;;;21.40;94.57
74218;BME280;62579;47.288;18.646;2023-08-24T02:08:38;99949.25;;;21.37;94.90
74218;BME280;62579;47.288;18.646;2023-08-24T02:11:03;99950.63;;;21.29;95.47
74218;BME280;62579;47.288;18.646;2023-08-24T02:13:29;99946.00;;;21.31;95.33
74218;BME280;62579;47.288;18.646;2023-08-24T02:16:08;99947.94;;;21.21;96.28
74218;BME280;62579;47.288;18.646;2023-08-24T02:18:37;99945.56;;;21.18;96.31
74218;BME280;62579;47.288;18.646;2023-08-24T02:21:10;99948.97;;;21.09;97.37
74218;BME280;62579;47.288;18.646;2023-08-24T02:23:36;99952.91;;;20.98;98.19
74218;BME280;62579;47.288;18.646;2023-08-24T02:26:02;99952.50;;;21.02;98.06
74218;BME280;62579;47.288;18.646;2023-08-24T02:28:28;99947.13;;;21.04;97.79
74218;BME280;62579;47.288;18.646;2023-08-24T02:30:53;99947.66;;;21.10;97.41
74218;BME280;62579;47.288;18.646;2023-08-24T02:33:19;99953.13;;;21.17;97.13
74218;BME280;62579;47.288;18.646;2023-08-24T02:35:47;99953.72;;;21.16;97.59
74218;BME280;62579;47.288;18.646;2023-08-24T02:38:12;99950.59;;;21.12;98.21
74218;BME280;62579;47.288;18.646;2023-08-24T02:40:38;99948.72;;;21.14;98.18
74218;BME280;62579;47.288;18.646;2023-08-24T02:43:03;99952.16;;;21.22;97.96
74218;BME280;62579;47.288;18.646;2023-08-24T02:45:28;99956.56;;;21.25;98.43
74218;BME280;62579;47.288;18.646;2023-08-24T02:47:54;99962.91;;;21.18;99.25
74218;BME280;62579;47.288;18.646;2023-08-24T02:50:19;99969.03;;;21.34;98.25
74218;BME280;62579;47.288;18.646;2023-08-24T02:52:44;99969.84;;;21.44;97.28
74218;BME280;62579;47.288;18.646;2023-08-24T02:55:11;99969.63;;;21.49;96.97
74218;BME280;62579;47.288;18.646;2023-08-24T02:57:36;99968.09;;;21.56;96.65
74218;BME280;62579;47.288;18.646;2023-08-24T03:00:03;99969.13;;;21.61;96.66
74218;BME280;62579;47.288;18.646;2023-08-24T03:02:29;99967.00;;;21.51;97.59
74218;BME280;62579;47.288;18.646;2023-08-24T03:04:54;99968.97;;;21.59;96.95
74218;BME280;62579;47.288;18.646;2023-08-24T03:07:20;99969.87;;;21.61;96.44
74218;BME280;62579;47.288;18.646;2023-08-24T03:09:46;99963.69;;;21.70;96.32
74218;BME280;62579;47.288;18.646;2023-08-24T03:12:11;99967.03;;;21.69;96.53
74218;BME280;62579;47.288;18.646;2023-08-24T03:14:37;99970.53;;;21.69;96.56
74218;BME280;62579;47.288;18.646;2023-08-24T03:17:03;99969.56;;;21.74;96.37
74218;BME280;62579;47.288;18.646;2023-08-24T03:19:29;99975.09;;;21.74;96.26
74218;BME280;62579;47.288;18.646;2023-08-24T03:21:55;99962.41;;;21.54;97.69
74218;BME280;62579;47.288;18.646;2023-08-24T03:24:20;99962.75;;;21.33;99.27
74218;BME280;62579;47.288;18.646;2023-08-24T03:26:45;99960.66;;;21.24;100.00
74218;BME280;62579;47.288;18.646;2023-08-24T03:29:11;99965.03;;;21.27;100.00
74218;BME280;62579;47.288;18.646;2023-08-24T03:31:36;99954.53;;;21.26;100.00
74218;BME280;62579;47.288;18.646;2023-08-24T03:34:01;99962.94;;;21.35;99.67
74218;BME280;62579;47.288;18.646;2023-08-24T03:36:28;99958.88;;;21.36;99.54
74218;BME280;62579;47.288;18.646;2023-08-24T03:38:54;99965.88;;;21.37;99.65
74218;BME280;62579;47.288;18.646;2023-08-24T03:41:19;99968.22;;;21.41;98.93
74218;BME280;62579;47.288;18.646;2023-08-24T03:43:44;99963.84;;;21.38;99.02
74218;BME280;62579;47.288;18.646;2023-08-24T03:46:10;99962.44;;;21.29;99.14
74218;BME280;62579;47.288;18.646;2023-08-24T03:48:35;99963.75;;;21.28;99.08
74218;BME280;62579;47.288;18.646;2023-08-24T03:51:00;99967.72;;;21.18;99.50
74218;BME280;62579;47.288;18.646;2023-08-24T03:53:26;99962.97;;;21.11;99.63
74218;BME280;62579;47.288;18.646;2023-08-24T03:55:54;99969.34;;;20.96;100.00
74218;BME280;62579;47.288;18.646;2023-08-24T03:58:20;99966.72;;;20.98;100.00
74218;BME280;62579;47.288;18.646;2023-08-24T04:00:46;99972.63;;;21.02;100.00
74218;BME280;62579;47.288;18.646;2023-08-24T04:03:12;99968.91;;;21.07;100.00
74218;BME280;62579;47.288;18.646;2023-08-24T04:05:37;99964.19;;;21.17;99.08
74218;BME280;62579;47.288;18.646;2023-08-24T04:08:03;99973.34;;;21.27;98.71
74218;BME280;62579;47.288;18.646;2023-08-24T04:10:29;99964.63;;;21.31;98.52
74218;BME280;62579;47.288;18.646;2023-08-24T04:12:55;99971.97;;;21.36;98.53
74218;BME280;62579;47.288;18.646;2023-08-24T04:15:20;99973.59;;;21.39;98.42
74218;BME280;62579;47.288;18.646;2023-08-24T04:17:46;99970.59;;;21.44;98.16
74218;BME280;62579;47.288;18.646;2023-08-24T04:20:11;99967.09;;;21.44;98.68
74218;BME280;62579;47.288;18.646;2023-08-24T04:22:37;99962.22;;;21.52;98.19
74218;BME280;62579;47.288;18.646;2023-08-24T04:25:03;99960.19;;;21.52;97.97
74218;BME280;62579;47.288;18.646;2023-08-24T04:27:28;99971.00;;;21.58;97.73
74218;BME280;62579;47.288;18.646;2023-08-24T04:29:54;99971.25;;;21.52;98.20
74218;BME280;62579;47.288;18.646;2023-08-24T04:32:19;99978.75;;;21.60;97.72
74218;BME280;62579;47.288;18.646;2023-08-24T04:34:44;99976.47;;;21.66;96.73
74218;BME280;62579;47.288;18.646;2023-08-24T04:37:10;99976.56;;;21.58;95.75
74218;BME280;62579;47.288;18.646;2023-08-24T04:39:35;99983.38;;;21.57;95.65
74218;BME280;62579;47.288;18.646;2023-08-24T04:42:01;99974.53;;;21.59;95.28
74218;BME280;62579;47.288;18.646;2023-08-24T04:44:27;99978.75;;;21.60;95.25
74218;BME280;62579;47.288;18.646;2023-08-24T04:46:53;99974.38;;;21.57;95.45
74218;BME280;62579;47.288;18.646;2023-08-24T04:49:18;99980.38;;;21.63;95.45
74218;BME280;62579;47.288;18.646;2023-08-24T04:51:43;99982.66;;;21.74;95.30
74218;BME280;62579;47.288;18.646;2023-08-24T04:54:09;99986.81;;;21.82;94.75
74218;BME280;62579;47.288;18.646;2023-08-24T04:56:35;99988.53;;;21.95;94.38
74218;BME280;62579;47.288;18.646;2023-08-24T04:59:00;99993.75;;;22.08;94.11
74218;BME280;62579;47.288;18.646;2023-08-24T05:01:27;99991.06;;;22.18;93.53
74218;BME280;62579;47.288;18.646;2023-08-24T05:03:54;99989.81;;;22.28;93.37
74218;BME280;62579;47.288;18.646;2023-08-24T05:06:22;99995.72;;;22.42;93.41
74218;BME280;62579;47.288;18.646;2023-08-24T05:08:47;99991.13;;;22.54;93.54
74218;BME280;62579;47.288;18.646;2023-08-24T05:11:16;99989.88;;;22.64;93.07
74218;BME280;62579;47.288;18.646;2023-08-24T05:13:41;100002.50;;;22.75;92.59
74218;BME280;62579;47.288;18.646;2023-08-24T05:16:07;99996.25;;;22.84;92.59
74218;BME280;62579;47.288;18.646;2023-08-24T05:18:34;100003.00;;;22.91;92.06
74218;BME280;62579;47.288;18.646;2023-08-24T05:21:00;99993.25;;;22.99;91.95
74218;BME280;62579;47.288;18.646;2023-08-24T05:23:25;99993.75;;;23.15;92.05
74218;BME280;62579;47.288;18.646;2023-08-24T05:25:51;99998.56;;;23.24;92.33
74218;BME280;62579;47.288;18.646;2023-08-24T05:36:02;100003.53;;;23.71;90.90
74218;BME280;62579;47.288;18.646;2023-08-24T05:38:27;99994.59;;;23.82;90.46
74218;BME280;62579;47.288;18.646;2023-08-24T05:40:52;99999.88;;;23.88;90.19
74218;BME280;62579;47.288;18.646;2023-08-24T05:43:18;100004.13;;;23.99;89.52
74218;BME280;62579;47.288;18.646;2023-08-24T05:45:45;99995.63;;;24.06;89.04
74218;BME280;62579;47.288;18.646;2023-08-24T05:48:11;99996.78;;;24.13;88.40
74218;BME280;62579;47.288;18.646;2023-08-24T05:50:37;100002.63;;;24.26;87.83
74218;BME280;62579;47.288;18.646;2023-08-24T05:53:03;100005.25;;;24.34;87.30
74218;BME280;62579;47.288;18.646;2023-08-24T05:55:28;100004.62;;;24.45;87.09
74218;BME280;62579;47.288;18.646;2023-08-24T05:57:54;100003.59;;;24.60;86.71
74218;BME280;62579;47.288;18.646;2023-08-24T06:00:19;100014.53;;;24.67;86.16
74218;BME280;62579;47.288;18.646;2023-08-24T06:02:45;100013.91;;;24.88;83.84
74218;BME280;62579;47.288;18.646;2023-08-24T06:05:10;100015.12;;;24.85;83.72
74218;BME280;62579;47.288;18.646;2023-08-24T06:07:36;100020.34;;;24.90;83.36
74218;BME280;62579;47.288;18.646;2023-08-24T06:10:02;100020.94;;;24.89;82.85
74218;BME280;62579;47.288;18.646;2023-08-24T06:12:27;100015.75;;;25.04;82.20
74218;BME280;62579;47.288;18.646;2023-08-24T06:14:53;100013.09;;;25.06;82.17
74218;BME280;62579;47.288;18.646;2023-08-24T06:17:18;100017.16;;;25.15;81.29
74218;BME280;62579;47.288;18.646;2023-08-24T06:19:43;100016.56;;;25.17;79.90
74218;BME280;62579;47.288;18.646;2023-08-24T06:22:09;100016.16;;;25.11;80.50
74218;BME280;62579;47.288;18.646;2023-08-24T06:24:35;100015.41;;;25.41;79.64
74218;BME280;62579;47.288;18.646;2023-08-24T06:27:00;100014.63;;;25.50;75.51
74218;BME280;62579;47.288;18.646;2023-08-24T06:29:28;100013.63;;;25.66;73.78
74218;BME280;62579;47.288;18.646;2023-08-24T06:31:53;100025.06;;;25.71;74.17
74218;BME280;62579;47.288;18.646;2023-08-24T06:34:20;100011.50;;;25.77;74.04
74218;BME280;62579;47.288;18.646;2023-08-24T06:36:45;100016.19;;;25.95;74.88
74218;BME280;62579;47.288;18.646;2023-08-24T06:39:10;100021.19;;;26.18;71.05
74218;BME280;62579;47.288;18.646;2023-08-24T06:41:36;100016.72;;;26.03;72.02
74218;BME280;62579;47.288;18.646;2023-08-24T06:44:01;100017.28;;;25.90;74.20
74218;BME280;62579;47.288;18.646;2023-08-24T06:46:27;100019.78;;;26.07;74.05
74218;BME280;62579;47.288;18.646;2023-08-24T06:48:52;100019.25;;;26.20;74.16
74218;BME280;62579;47.288;18.646;2023-08-24T06:51:18;100020.59;;;26.31;74.28
74218;BME280;62579;47.288;18.646;2023-08-24T06:53:43;100012.63;;;26.37;73.54
74218;BME280;62579;47.288;18.646;2023-08-24T06:56:08;100013.47;;;26.40;73.84
74218;BME280;62579;47.288;18.646;2023-08-24T06:58:34;100014.47;;;26.56;72.98
74218;BME280;62579;47.288;18.646;2023-08-24T07:01:00;100015.22;;;26.68;72.64
74218;BME280;62579;47.288;18.646;2023-08-24T07:03:25;100020.59;;;26.75;72.06
74218;BME280;62579;47.288;18.646;2023-08-24T07:05:50;100015.25;;;26.79;71.00
74218;BME280;62579;47.288;18.646;2023-08-24T07:08:16;100021.66;;;26.59;70.80
74218;BME280;62579;47.288;18.646;2023-08-24T07:10:42;100020.94;;;26.70;70.29
74218;BME280;62579;47.288;18.646;2023-08-24T07:13:08;100018.25;;;26.72;71.09
74218;BME280;62579;47.288;18.646;2023-08-24T07:15:34;100019.03;;;26.96;69.51
74218;BME280;62579;47.288;18.646;2023-08-24T07:18:03;100021.03;;;26.60;68.17
74218;BME280;62579;47.288;18.646;2023-08-24T07:20:31;100019.72;;;26.61;69.25
74218;BME280;62579;47.288;18.646;2023-08-24T07:22:57;100027.25;;;26.70;67.19
74218;BME280;62579;47.288;18.646;2023-08-24T07:25:22;100022.91;;;26.79;67.22
74218;BME280;62579;47.288;18.646;2023-08-24T07:27:48;100022.19;;;26.78;66.66
74218;BME280;62579;47.288;18.646;2023-08-24T07:30:13;100022.53;;;26.73;67.36
74218;BME280;62579;47.288;18.646;2023-08-24T07:32:39;100025.59;;;26.89;66.70
74218;BME280;62579;47.288;18.646;2023-08-24T07:35:04;100019.38;;;26.90;66.29
74218;BME280;62579;47.288;18.646;2023-08-24T07:37:31;100026.31;;;26.89;66.26
74218;BME280;62579;47.288;18.646;2023-08-24T07:39:57;100021.34;;;26.99;64.77
74218;BME280;62579;47.288;18.646;2023-08-24T07:42:22;100015.28;;;27.03;65.35
74218;BME280;62579;47.288;18.646;2023-08-24T07:44:48;100024.13;;;26.99;65.22
74218;BME280;62579;47.288;18.646;2023-08-24T07:47:14;100022.56;;;27.08;65.73
74218;BME280;62579;47.288;18.646;2023-08-24T07:49:39;100023.63;;;27.26;65.68
74218;BME280;62579;47.288;18.646;2023-08-24T07:52:11;100017.44;;;27.51;65.97
74218;BME280;62579;47.288;18.646;2023-08-24T07:54:37;100023.72;;;27.63;64.50
74218;BME280;62579;47.288;18.646;2023-08-24T07:57:04;100011.78;;;27.62;64.15
74218;BME280;62579;47.288;18.646;2023-08-24T07:59:30;100014.06;;;27.77;63.45
74218;BME280;62579;47.288;18.646;2023-08-24T08:01:55;100019.87;;;27.81;62.96
74218;BME280;62579;47.288;18.646;2023-08-24T08:04:20;100019.84;;;27.93;62.59
74218;BME280;62579;47.288;18.646;2023-08-24T08:06:46;100021.94;;;27.81;61.86
74218;BME280;62579;47.288;18.646;2023-08-24T08:09:11;100022.66;;;27.56;62.13
74218;BME280;62579;47.288;18.646;2023-08-24T08:11:37;100022.69;;;27.81;63.11
74218;BME280;62579;47.288;18.646;2023-08-24T08:14:02;100025.44;;;27.93;62.38
74218;BME280;62579;47.288;18.646;2023-08-24T08:16:28;100026.87;;;28.06;62.00
74218;BME280;62579;47.288;18.646;2023-08-24T08:18:53;100020.69;;;28.07;60.25
74218;BME280;62579;47.288;18.646;2023-08-24T08:21:18;100020.06;;;28.34;59.46
74218;BME280;62579;47.288;18.646;2023-08-24T08:23:44;100021.94;;;28.43;57.21
74218;BME280;62579;47.288;18.646;2023-08-24T08:26:11;100025.41;;;28.55;55.91
74218;BME280;62579;47.288;18.646;2023-08-24T08:28:36;100026.00;;;28.53;55.14
74218;BME280;62579;47.288;18.646;2023-08-24T08:31:01;100026.38;;;28.34;55.99
74218;BME280;62579;47.288;18.646;2023-08-24T08:33:28;100023.00;;;28.49;53.94
74218;BME280;62579;47.288;18.646;2023-08-24T08:35:54;100022.44;;;28.65;55.03
74218;BME280;62579;47.288;18.646;2023-08-24T08:38:19;100024.97;;;28.72;54.42
74218;BME280;62579;47.288;18.646;2023-08-24T08:40:49;100015.00;;;28.69;50.53
74218;BME280;62579;47.288;18.646;2023-08-24T08:43:14;100013.47;;;28.80;51.13
74218;BME280;62579;47.288;18.646;2023-08-24T08:45:39;100013.06;;;28.99;53.17
74218;BME280;62579;47.288;18.646;2023-08-24T08:48:06;100013.47;;;29.21;50.30
74218;BME280;62579;47.288;18.646;2023-08-24T08:50:32;100013.75;;;28.99;45.91
74218;BME280;62579;47.288;18.646;2023-08-24T08:53:00;100009.13;;;29.31;45.52
74218;BME280;62579;47.288;18.646;2023-08-24T08:55:26;100014.00;;;29.31;44.71
74218;BME280;62579;47.288;18.646;2023-08-24T08:57:53;100020.53;;;29.49;44.38
74218;BME280;62579;47.288;18.646;2023-08-24T09:00:23;100010.13;;;29.51;44.20
74218;BME280;62579;47.288;18.646;2023-08-24T09:02:48;100016.47;;;29.65;45.60
74218;BME280;62579;47.288;18.646;2023-08-24T09:05:16;100013.34;;;29.59;44.79
74218;BME280;62579;47.288;18.646;2023-08-24T09:07:42;100024.22;;;29.67;45.29
74218;BME280;62579;47.288;18.646;2023-08-24T09:10:08;100013.09;;;29.83;44.47
74218;BME280;62579;47.288;18.646;2023-08-24T09:12:34;100009.78;;;29.86;42.95
74218;BME280;62579;47.288;18.646;2023-08-24T09:15:02;100009.16;;;29.74;45.20
74218;BME280;62579;47.288;18.646;2023-08-24T09:17:27;100012.88;;;29.78;43.47
74218;BME280;62579;47.288;18.646;2023-08-24T09:19:58;100008.12;;;29.81;45.44
74218;BME280;62579;47.288;18.646;2023-08-24T09:22:24;100008.34;;;29.71;43.16
74218;BME280;62579;47.288;18.646;2023-08-24T09:24:49;100003.97;;;29.82;44.22
74218;BME280;62579;47.288;18.646;2023-08-24T09:27:17;100000.84;;;29.76;44.45
74218;BME280;62579;47.288;18.646;2023-08-24T09:29:46;100008.03;;;29.79;45.51
74218;BME280;62579;47.288;18.646;2023-08-24T09:32:12;100003.78;;;29.64;45.36
74218;BME280;62579;47.288;18.646;2023-08-24T09:34:37;99999.78;;;29.83;45.71
74218;BME280;62579;47.288;18.646;2023-08-24T09:37:03;99993.84;;;29.91;43.74
74218;BME280;62579;47.288;18.646;2023-08-24T09:39:29;100000.34;;;30.09;43.76
74218;BME280;62579;47.288;18.646;2023-08-24T09:42:00;99998.97;;;30.10;44.29
74218;BME280;62579;47.288;18.646;2023-08-24T09:44:26;99996.50;;;30.02;43.63
74218;BME280;62579;47.288;18.646;2023-08-24T09:46:52;99996.47;;;30.16;42.82
74218;BME280;62579;47.288;18.646;2023-08-24T09:49:18;99993.91;;;30.06;43.76
74218;BME280;62579;47.288;18.646;2023-08-24T09:51:44;99999.28;;;29.87;44.08
74218;BME280;62579;47.288;18.646;2023-08-24T09:54:10;99995.78;;;30.02;44.90
74218;BME280;62579;47.288;18.646;2023-08-24T09:56:36;99990.84;;;30.31;44.13
74218;BME280;62579;47.288;18.646;2023-08-24T09:59:22;99985.81;;;30.28;43.40
74218;BME280;62579;47.288;18.646;2023-08-24T10:01:51;99988.59;;;30.28;44.22
74218;BME280;62579;47.288;18.646;2023-08-24T10:04:23;99988.00;;;30.61;44.58
74218;BME280;62579;47.288;18.646;2023-08-24T10:06:51;99988.09;;;30.78;43.17
74218;BME280;62579;47.288;18.646;2023-08-24T10:09:31;99983.66;;;30.89;44.30
74218;BME280;62579;47.288;18.646;2023-08-24T10:12:02;99991.44;;;30.90;44.79
74218;BME280;62579;47.288;18.646;2023-08-24T10:14:33;99978.78;;;30.74;43.78
74218;BME280;62579;47.288;18.646;2023-08-24T10:17:00;99975.03;;;30.85;43.08
74218;BME280;62579;47.288;18.646;2023-08-24T10:19:27;99978.31;;;30.79;44.25
74218;BME280;62579;47.288;18.646;2023-08-24T10:21:56;99968.81;;;30.71;44.93
74218;BME280;62579;47.288;18.646;2023-08-24T10:24:25;99972.59;;;30.93;45.36
74218;BME280;62579;47.288;18.646;2023-08-24T10:26:50;99967.53;;;30.89;44.44
74218;BME280;62579;47.288;18.646;2023-08-24T10:29:16;99971.44;;;30.67;44.89
74218;BME280;62579;47.288;18.646;2023-08-24T10:31:42;99970.16;;;30.70;45.16
74218;BME280;62579;47.288;18.646;2023-08-24T10:34:09;99956.34;;;31.07;43.70
74218;BME280;62579;47.288;18.646;2023-08-24T10:36:35;99957.09;;;31.25;45.20
74218;BME280;62579;47.288;18.646;2023-08-24T10:39:03;99956.81;;;31.35;44.19
74218;BME280;62579;47.288;18.646;2023-08-24T10:41:51;99955.25;;;31.14;45.00
74218;BME280;62579;47.288;18.646;2023-08-24T10:47:19;99952.44;;;31.14;44.33
74218;BME280;62579;47.288;18.646;2023-08-24T10:50:05;99947.63;;;31.17;42.98
74218;BME280;62579;47.288;18.646;2023-08-24T10:52:31;99941.34;;;31.18;42.68
74218;BME280;62579;47.288;18.646;2023-08-24T10:55:00;99939.09;;;31.15;43.39
74218;BME280;62579;47.288;18.646;2023-08-24T10:57:39;99944.19;;;31.52;42.49
74218;BME280;62579;47.288;18.646;2023-08-24T11:00:10;99943.03;;;31.59;43.45
74218;BME280;62579;47.288;18.646;2023-08-24T11:05:24;99939.56;;;31.09;42.54
74218;BME280;62579;47.288;18.646;2023-08-24T11:08:05;99935.75;;;31.36;42.62
74218;BME280;62579;47.288;18.646;2023-08-24T11:13:14;99935.56;;;31.47;40.99
74218;BME280;62579;47.288;18.646;2023-08-24T11:15:44;99931.87;;;31.61;40.40
74218;BME280;62579;47.288;18.646;2023-08-24T11:20:49;99929.78;;;31.79;40.52
74218;BME280;62579;47.288;18.646;2023-08-24T11:23:15;99935.00;;;31.86;40.34
74218;BME280;62579;47.288;18.646;2023-08-24T11:25:41;99937.03;;;31.48;40.52
74218;BME280;62579;47.288;18.646;2023-08-24T11:28:06;99924.16;;;31.61;40.79
74218;BME280;62579;47.288;18.646;2023-08-24T11:30:32;99929.06;;;31.61;41.35
74218;BME280;62579;47.288;18.646;2023-08-24T11:32:58;99917.69;;;31.76;39.89
74218;BME280;62579;47.288;18.646;2023-08-24T11:35:25;99918.84;;;31.52;41.55
74218;BME280;62579;47.288;18.646;2023-08-24T11:37:57;99926.56;;;31.69;41.49
74218;BME280;62579;47.288;18.646;2023-08-24T11:40:23;99915.94;;;32.02;41.10
74218;BME280;62579;47.288;18.646;2023-08-24T11:42:55;99913.12;;;32.02;41.28
74218;BME280;62579;47.288;18.646;2023-08-24T11:45:21;99911.06;;;32.23;38.92
74218;BME280;62579;47.288;18.646;2023-08-24T11:47:47;99903.34;;;32.23;40.68
74218;BME280;62579;47.288;18.646;2023-08-24T11:50:13;99896.34;;;32.24;39.40
74218;BME280;62579;47.288;18.646;2023-08-24T11:52:42;99910.69;;;32.13;39.79
74218;BME280;62579;47.288;18.646;2023-08-24T11:55:07;99901.06;;;32.00;41.19
74218;BME280;62579;47.288;18.646;2023-08-24T11:57:37;99901.44;;;31.92;41.72
74218;BME280;62579;47.288;18.646;2023-08-24T12:00:04;99901.37;;;32.28;41.45
74218;BME280;62579;47.288;18.646;2023-08-24T12:02:30;99903.56;;;32.49;39.99
74218;BME280;62579;47.288;18.646;2023-08-24T12:04:55;99892.00;;;32.41;40.48
74218;BME280;62579;47.288;18.646;2023-08-24T12:07:21;99891.12;;;32.17;39.94
74218;BME280;62579;47.288;18.646;2023-08-24T12:09:47;99886.81;;;32.14;40.93
74218;BME280;62579;47.288;18.646;2023-08-24T12:12:16;99881.69;;;32.47;41.44
74218;BME280;62579;47.288;18.646;2023-08-24T12:14:43;99884.94;;;32.40;41.75
74218;BME280;62579;47.288;18.646;2023-08-24T12:17:09;99884.09;;;32.35;40.09
74218;BME280;62579;47.288;18.646;2023-08-24T12:19:34;99877.09;;;32.56;39.51
74218;BME280;62579;47.288;18.646;2023-08-24T12:22:00;99876.59;;;32.61;38.50
74218;BME280;62579;47.288;18.646;2023-08-24T12:24:25;99872.34;;;32.82;39.36
74218;BME280;62579;47.288;18.646;2023-08-24T12:26:57;99877.72;;;32.74;38.49
74218;BME280;62579;47.288;18.646;2023-08-24T12:29:23;99875.91;;;32.83;38.46
74218;BME280;62579;47.288;18.646;2023-08-24T12:31:49;99874.56;;;32.64;39.49
74218;BME280;62579;47.288;18.646;2023-08-24T12:34:15;99873.81;;;32.44;39.65
74218;BME280;62579;47.288;18.646;2023-08-24T12:36:41;99866.16;;;32.46;41.22
74218;BME280;62579;47.288;18.646;2023-08-24T12:39:10;99862.72;;;32.67;38.80
74218;BME280;62579;47.288;18.646;2023-08-24T12:41:38;99870.78;;;32.57;38.96
74218;BME280;62579;47.288;18.646;2023-08-24T12:44:03;99855.75;;;32.71;38.63
74218;BME280;62579;47.288;18.646;2023-08-24T12:46:36;99851.84;;;32.60;38.76
74218;BME280;62579;47.288;18.646;2023-08-24T12:49:02;99853.28;;;32.81;37.55
74218;BME280;62579;47.288;18.646;2023-08-24T12:51:27;99847.25;;;32.90;38.98
74218;BME280;62579;47.288;18.646;2023-08-24T12:53:52;99845.03;;;32.87;38.26
74218;BME280;62579;47.288;18.646;2023-08-24T12:56:18;99847.44;;;32.75;38.57
74218;BME280;62579;47.288;18.646;2023-08-24T12:58:43;99843.91;;;32.74;37.59
74218;BME280;62579;47.288;18.646;2023-08-24T13:01:09;99834.28;;;32.42;38.35
74218;BME280;62579;47.288;18.646;2023-08-24T13:03:34;99833.94;;;32.93;38.19
74218;BME280;62579;47.288;18.646;2023-08-24T13:06:01;99828.63;;;33.03;37.61